Time;durP1;ratioP1;P1;durP2;ratioP2;P2;SDS_P1;SDS_P2;PMS_P1;PMS_P2;Temp;Humidity;BMP_temperature;BMP_pressure;BME280_temperature;BME280_humidity;BME280_pressure;Samples;Min_cycle;Max_cycle;Signal;HPM_P1;HPM_P2
2023/02/02 03:39:06;;;;;;;;;;;;;;;1.73;100.00;98566.47;3816516;28;19986;-56
2023/02/02 03:41:31;;;;;;;;;;;;;;;1.64;100.00;98568.88;5032664;28;20299;-59
2023/02/02 03:43:56;;;;;;;;;;;;;;;1.70;100.00;98571.47;5029174;28;20556;-58
2023/02/02 03:46:22;;;;;;;;;;;;;;;1.69;100.00;98579.91;5029813;28;19931;-57
2023/02/02 03:48:47;;;;;;;;;;;;;;;1.71;100.00;98582.41;5034363;28;19924;-60
2023/02/02 03:51:13;;;;;;;;;;;;;;;1.65;100.00;98573.09;5031398;28;20033;-57
2023/02/02 03:53:39;;;;;;;;;;;;;;;1.69;100.00;98574.00;5031605;28;19976;-57
2023/02/02 03:56:05;;;;;;;;;;;;;;;1.64;100.00;98576.44;5031853;28;19984;-57
2023/02/02 03:58:31;;;;;;;;;;;;;;;1.64;100.00;98571.38;5031362;28;20380;-56
2023/02/02 04:01:06;;;;;;;;;;;;;;;1.64;100.00;98560.44;5032735;28;19959;-57
2023/02/02 04:03:32;;;;;;;;;;;;;;;1.69;100.00;98572.31;5031775;28;19921;-57
2023/02/02 04:05:58;;;;;;;;;;;;;;;1.72;100.00;98553.81;5030269;28;20444;-59
2023/02/02 04:08:23;;;;;;;;;;;;;;;1.80;100.00;98560.66;5028529;28;19937;-60
2023/02/02 04:10:49;;;;;;;;;;;;;;;1.83;100.00;98564.91;5029794;28;20508;-57
2023/02/02 04:13:18;;;;;;;;;;;;;;;1.82;100.00;98551.41;5030305;28;19925;-58
2023/02/02 04:15:43;;;;;;;;;;;;;;;1.83;100.00;98537.09;5030855;28;19928;-58
2023/02/02 04:18:09;;;;;;;;;;;;;;;1.89;100.00;98543.94;5030219;28;19924;-59
2023/02/02 04:20:34;;;;;;;;;;;;;;;1.90;100.00;98554.06;5032157;28;19921;-57
2023/02/02 04:23:00;;;;;;;;;;;;;;;1.89;100.00;98562.47;5030370;28;20057;-59
2023/02/02 04:25:25;;;;;;;;;;;;;;;1.93;100.00;98586.13;5031456;28;20377;-59
2023/02/02 04:27:51;;;;;;;;;;;;;;;1.91;100.00;98578.50;5030776;28;19921;-58
2023/02/02 04:30:18;;;;;;;;;;;;;;;1.89;100.00;98575.13;5029154;28;19932;-57
2023/02/02 04:32:44;;;;;;;;;;;;;;;1.86;100.00;98572.56;5029359;28;19929;-56
2023/02/02 04:35:09;;;;;;;;;;;;;;;1.86;100.00;98577.59;5031073;28;19972;-59
2023/02/02 04:37:35;;;;;;;;;;;;;;;1.82;100.00;98580.94;5029758;28;19925;-57
2023/02/02 04:40:00;;;;;;;;;;;;;;;1.82;100.00;98585.97;5030083;28;19925;-58
2023/02/02 04:42:26;;;;;;;;;;;;;;;1.95;100.00;98584.47;5031393;28;20024;-58
2023/02/02 04:44:51;;;;;;;;;;;;;;;2.02;100.00;98576.13;5033028;28;19928;-55
2023/02/02 04:47:17;;;;;;;;;;;;;;;2.09;100.00;98565.28;5031985;28;20307;-58
2023/02/02 04:49:42;;;;;;;;;;;;;;;2.11;100.00;98581.31;5037817;28;20027;-56
2023/02/02 04:52:09;;;;;;;;;;;;;;;2.18;100.00;98578.03;5031003;28;19968;-56
2023/02/02 04:54:34;;;;;;;;;;;;;;;2.17;100.00;98574.66;5030024;28;19978;-56
2023/02/02 04:57:00;;;;;;;;;;;;;;;2.21;100.00;98573.00;5030999;28;20026;-59
2023/02/02 04:59:27;;;;;;;;;;;;;;;2.35;100.00;98569.00;5030449;28;20343;-58
2023/02/02 05:01:52;;;;;;;;;;;;;;;2.35;100.00;98550.44;5029872;28;19968;-59
2023/02/02 05:04:17;;;;;;;;;;;;;;;2.37;100.00;98556.38;5029802;28;20365;-60
2023/02/02 05:06:43;;;;;;;;;;;;;;;2.39;100.00;98555.53;5029636;28;19951;-58
2023/02/02 05:09:09;;;;;;;;;;;;;;;2.42;100.00;98575.81;5031361;28;19924;-58
2023/02/02 05:11:35;;;;;;;;;;;;;;;2.46;100.00;98579.25;5027906;28;19974;-57
2023/02/02 05:14:00;;;;;;;;;;;;;;;2.39;100.00;98583.38;5025341;28;20350;-60
2023/02/02 05:16:25;;;;;;;;;;;;;;;2.38;100.00;98571.53;5029227;28;19925;-60
2023/02/02 05:18:52;;;;;;;;;;;;;;;2.34;100.00;98587.50;5029605;28;19920;-59
2023/02/02 05:21:19;;;;;;;;;;;;;;;2.37;100.00;98592.63;5030000;28;19921;-57
2023/02/02 05:23:44;;;;;;;;;;;;;;;2.35;100.00;98593.44;5029061;28;19925;-57
2023/02/02 05:26:14;;;;;;;;;;;;;;;2.43;100.00;98591.84;5029851;28;20295;-60
2023/02/02 05:28:40;;;;;;;;;;;;;;;2.37;100.00;98591.78;5029572;28;19920;-62
2023/02/02 05:31:06;;;;;;;;;;;;;;;2.41;100.00;98571.59;5030627;28;19925;-57
2023/02/02 05:33:31;;;;;;;;;;;;;;;2.35;100.00;98579.09;5028612;28;20322;-60
2023/02/02 05:35:57;;;;;;;;;;;;;;;2.37;100.00;98574.94;5029963;28;20047;-56
2023/02/02 05:38:22;;;;;;;;;;;;;;;2.31;100.00;98564.72;5028160;28;20367;-59
2023/02/02 05:40:48;;;;;;;;;;;;;;;2.32;100.00;98586.66;5029952;28;19931;-57
2023/02/02 05:43:13;;;;;;;;;;;;;;;2.25;100.00;98588.25;5029704;28;19928;-59
2023/02/02 05:45:39;;;;;;;;;;;;;;;2.27;100.00;98583.22;5029273;28;20510;-59
2023/02/02 05:48:04;;;;;;;;;;;;;;;2.22;100.00;98587.38;5028411;28;20526;-58
2023/02/02 05:50:30;;;;;;;;;;;;;;;2.19;100.00;98589.84;5029865;28;19932;-59
2023/02/02 05:53:02;;;;;;;;;;;;;;;2.16;100.00;98583.09;5029757;28;20314;-58
2023/02/02 05:55:28;;;;;;;;;;;;;;;2.06;100.00;98583.78;5029025;28;19925;-58
2023/02/02 05:57:54;;;;;;;;;;;;;;;2.09;100.00;98590.56;5029993;28;20761;-58
2023/02/02 06:00:20;;;;;;;;;;;;;;;2.04;100.00;98609.84;5031517;28;19929;-58
2023/02/02 06:02:45;;;;;;;;;;;;;;;1.98;100.00;98608.13;5029154;28;19970;-57
2023/02/02 06:05:11;;;;;;;;;;;;;;;2.04;100.00;98609.84;5031194;28;19931;-56
2023/02/02 06:07:36;;;;;;;;;;;;;;;2.08;100.00;98604.88;5029528;28;20409;-62
2023/02/02 06:10:01;;;;;;;;;;;;;;;2.20;100.00;98594.94;5028240;28;20017;-59
2023/02/02 06:12:28;;;;;;;;;;;;;;;2.26;100.00;98589.97;5030788;28;19929;-60
2023/02/02 06:14:53;;;;;;;;;;;;;;;2.30;100.00;98591.69;5032115;28;19986;-53
2023/02/02 06:17:18;;;;;;;;;;;;;;;2.35;100.00;98588.38;5028798;28;19975;-61
2023/02/02 06:19:44;;;;;;;;;;;;;;;2.43;100.00;98597.75;5060948;28;19940;-52
2023/02/02 06:22:09;;;;;;;;;;;;;;;2.33;100.00;98601.03;5026240;28;19929;-56
2023/02/02 06:24:35;;;;;;;;;;;;;;;2.27;100.00;98608.50;5029560;28;19971;-55
2023/02/02 06:27:00;;;;;;;;;;;;;;;2.24;100.00;98611.88;5030602;28;20406;-55
2023/02/02 06:29:26;;;;;;;;;;;;;;;2.22;100.00;98625.28;5029618;28;20387;-57
2023/02/02 06:31:51;;;;;;;;;;;;;;;2.17;100.00;98629.44;5029008;28;20467;-54
2023/02/02 06:34:17;;;;;;;;;;;;;;;2.25;100.00;98637.97;5032439;28;20047;-55
2023/02/02 06:36:42;;;;;;;;;;;;;;;2.23;100.00;98635.44;5033957;28;20290;-52
2023/02/02 06:39:08;;;;;;;;;;;;;;;2.27;100.00;98648.97;5031308;28;20000;-57
2023/02/02 06:41:34;;;;;;;;;;;;;;;2.17;100.00;98644.59;5032798;28;19990;-55
2023/02/02 06:43:59;;;;;;;;;;;;;;;2.19;100.00;98659.00;5032949;28;19925;-52
2023/02/02 06:46:25;;;;;;;;;;;;;;;2.17;100.00;98652.19;5036340;28;19921;-55
2023/02/02 06:48:50;;;;;;;;;;;;;;;2.13;100.00;98661.41;5029019;28;19929;-55
2023/02/02 06:51:16;;;;;;;;;;;;;;;2.12;100.00;98677.41;5022835;28;19932;-51
2023/02/02 06:53:41;;;;;;;;;;;;;;;2.14;100.00;98670.72;5028994;28;20354;-58
2023/02/02 06:56:10;;;;;;;;;;;;;;;2.18;100.00;98679.19;5029071;28;20637;-55
2023/02/02 06:58:35;;;;;;;;;;;;;;;2.20;100.00;98680.94;5033037;28;19925;-56
2023/02/02 07:01:03;;;;;;;;;;;;;;;2.12;100.00;98686.69;5032748;28;20391;-54
2023/02/02 07:03:28;;;;;;;;;;;;;;;2.06;100.00;98686.59;5029721;28;19971;-55
2023/02/02 07:05:54;;;;;;;;;;;;;;;2.13;100.00;98686.72;5051620;28;20025;-57
2023/02/02 07:08:20;;;;;;;;;;;;;;;2.21;100.00;98691.88;5031648;28;20018;-57
2023/02/02 07:10:45;;;;;;;;;;;;;;;2.19;100.00;98696.94;5030102;28;19925;-56
2023/02/02 07:13:11;;;;;;;;;;;;;;;2.24;100.00;98699.53;5030893;28;19928;-52
2023/02/02 07:15:39;;;;;;;;;;;;;;;2.30;100.00;98702.97;5032372;28;20604;-53
2023/02/02 07:18:05;;;;;;;;;;;;;;;2.44;100.00;98700.66;5029091;28;19921;-60
2023/02/02 07:20:30;;;;;;;;;;;;;;;2.51;100.00;98702.44;5030909;28;19968;-53
2023/02/02 07:22:56;;;;;;;;;;;;;;;2.61;100.00;98706.81;5029598;28;19972;-55
2023/02/02 07:25:21;;;;;;;;;;;;;;;2.64;100.00;98716.97;5027788;28;20455;-55
2023/02/02 07:27:50;;;;;;;;;;;;;;;2.61;100.00;98723.66;5060867;28;19925;-53
2023/02/02 07:30:16;;;;;;;;;;;;;;;2.58;100.00;98710.97;5031618;28;19931;-54
2023/02/02 07:32:45;;;;;;;;;;;;;;;2.63;100.00;98717.78;5028818;28;19921;-55
2023/02/02 07:35:11;;;;;;;;;;;;;;;2.69;100.00;98724.63;5028057;28;19921;-53
2023/02/02 07:37:36;;;;;;;;;;;;;;;2.76;100.00;98727.25;5027777;28;19924;-58
2023/02/02 07:40:01;;;;;;;;;;;;;;;2.74;100.00;98711.19;5027423;28;19929;-56
2023/02/02 07:42:27;;;;;;;;;;;;;;;2.76;100.00;98722.19;5029743;28;19927;-56
2023/02/02 07:44:52;;;;;;;;;;;;;;;2.75;100.00;98719.66;5030090;28;19924;-54
2023/02/02 07:47:18;;;;;;;;;;;;;;;2.78;100.00;98723.88;5028276;28;20454;-56
2023/02/02 07:49:44;;;;;;;;;;;;;;;2.87;100.00;98731.59;5030948;28;19936;-57
2023/02/02 07:52:10;;;;;;;;;;;;;;;2.94;100.00;98738.44;5031049;28;19990;-54
2023/02/02 07:54:35;;;;;;;;;;;;;;;2.98;100.00;98741.03;5029673;28;20391;-56
2023/02/02 07:57:01;;;;;;;;;;;;;;;3.02;100.00;98750.38;5029996;28;19931;-54
2023/02/02 07:59:26;;;;;;;;;;;;;;;3.09;100.00;98751.31;5027993;28;19970;-57
2023/02/02 08:01:52;;;;;;;;;;;;;;;3.11;100.00;98750.50;5029711;28;20403;-53
2023/02/02 08:04:18;;;;;;;;;;;;;;;3.14;100.00;98753.06;5029781;28;20307;-56
2023/02/02 08:06:43;;;;;;;;;;;;;;;3.19;100.00;98756.50;5030060;28;20034;-57
2023/02/02 08:09:09;;;;;;;;;;;;;;;3.21;100.00;98769.19;5030323;28;19925;-52
2023/02/02 08:11:35;;;;;;;;;;;;;;;3.22;100.00;98765.84;5027820;28;20488;-54
2023/02/02 08:14:02;;;;;;;;;;;;;;;3.36;100.00;98754.16;5025606;28;20069;-53
2023/02/02 08:16:28;;;;;;;;;;;;;;;3.49;100.00;98762.75;5025061;28;20390;-55
2023/02/02 08:18:54;;;;;;;;;;;;;;;3.60;100.00;98758.66;5028561;28;19925;-52
2023/02/02 08:21:20;;;;;;;;;;;;;;;3.75;100.00;98757.94;5030211;28;19998;-56
2023/02/02 08:23:47;;;;;;;;;;;;;;;3.76;100.00;98768.13;5029184;28;19994;-53
2023/02/02 08:26:13;;;;;;;;;;;;;;;3.81;100.00;98765.63;5036284;28;19964;-54
2023/02/02 08:28:39;;;;;;;;;;;;;;;3.84;100.00;98763.97;5031629;28;20011;-55
2023/02/02 08:31:10;;;;;;;;;;;;;;;3.87;100.00;98765.69;5026137;28;19924;-53
2023/02/02 08:33:36;;;;;;;;;;;;;;;3.79;100.00;98769.81;5025326;28;20443;-54
2023/02/02 08:36:02;;;;;;;;;;;;;;;3.79;100.00;98780.81;5028628;28;20848;-54
2023/02/02 08:38:27;;;;;;;;;;;;;;;3.82;100.00;98773.22;5025282;28;19925;-52
2023/02/02 08:40:53;;;;;;;;;;;;;;;3.85;100.00;98775.81;5029983;28;20359;-51
2023/02/02 08:43:19;;;;;;;;;;;;;;;3.97;100.00;98781.00;5027310;28;19924;-54
2023/02/02 08:45:46;;;;;;;;;;;;;;;3.94;100.00;98775.06;5029068;28;19925;-57
2023/02/02 08:48:13;;;;;;;;;;;;;;;4.01;100.00;98789.50;5025899;28;20348;-56
2023/02/02 08:50:38;;;;;;;;;;;;;;;4.08;100.00;98779.41;5027158;28;19928;-52
2023/02/02 08:53:04;;;;;;;;;;;;;;;4.22;100.00;98771.06;5027970;28;20375;-55
2023/02/02 08:55:29;;;;;;;;;;;;;;;4.30;100.00;98777.91;5030437;28;20447;-55
2023/02/02 08:57:55;;;;;;;;;;;;;;;4.40;100.00;98789.84;5057088;28;20014;-54
2023/02/02 09:00:20;;;;;;;;;;;;;;;4.44;100.00;98771.25;5025930;28;19939;-54
2023/02/02 09:02:49;;;;;;;;;;;;;;;4.52;100.00;98781.47;5025761;28;19925;-54
2023/02/02 09:05:14;;;;;;;;;;;;;;;4.45;100.00;98778.06;5024969;28;20012;-51
2023/02/02 09:07:40;;;;;;;;;;;;;;;4.23;100.00;98793.06;5024659;28;19996;-56
2023/02/02 09:10:05;;;;;;;;;;;;;;;4.21;100.00;98787.13;5027956;28;19925;-55
2023/02/02 09:12:31;;;;;;;;;;;;;;;4.13;100.00;98802.28;5028143;28;20019;-53
2023/02/02 09:14:56;;;;;;;;;;;;;;;4.10;100.00;98792.97;5026565;28;19936;-53
2023/02/02 09:17:22;;;;;;;;;;;;;;;4.06;100.00;98790.41;5026165;28;20304;-51
2023/02/02 09:19:48;;;;;;;;;;;;;;;3.99;100.00;98791.16;5028954;28;20306;-51
2023/02/02 09:22:14;;;;;;;;;;;;;;;3.91;100.00;98800.38;5029907;28;19935;-51
2023/02/02 09:24:39;;;;;;;;;;;;;;;3.99;100.00;98793.69;5030905;28;19995;-52
2023/02/02 09:27:05;;;;;;;;;;;;;;;4.04;100.00;98795.44;5027036;28;19932;-54
2023/02/02 09:29:31;;;;;;;;;;;;;;;3.98;100.00;98797.09;5027873;28;19925;-51
2023/02/02 09:31:56;;;;;;;;;;;;;;;3.92;100.00;98797.84;5028612;28;19932;-55
2023/02/02 09:34:23;;;;;;;;;;;;;;;3.96;100.00;98799.59;5028265;28;20429;-54
2023/02/02 09:36:49;;;;;;;;;;;;;;;3.92;100.00;98804.63;5028898;28;19925;-52
2023/02/02 09:39:15;;;;;;;;;;;;;;;3.90;100.00;98811.38;5027483;28;19925;-54
2023/02/02 09:41:40;;;;;;;;;;;;;;;4.02;100.00;98802.19;5027268;28;19925;-53
2023/02/02 09:44:15;;;;;;;;;;;;;;;4.06;100.00;98800.53;5028351;28;20345;-55
2023/02/02 09:46:56;;;;;;;;;;;;;;;4.27;100.00;98812.56;5026497;28;19971;-54
2023/02/02 09:49:25;;;;;;;;;;;;;;;4.47;100.00;98800.88;5029009;28;19999;-55
2023/02/02 09:51:55;;;;;;;;;;;;;;;4.45;100.00;98813.59;5029628;28;20215;-56
2023/02/02 09:54:26;;;;;;;;;;;;;;;4.36;100.00;98807.56;5027521;28;19957;-52
2023/02/02 09:56:54;;;;;;;;;;;;;;;4.37;100.00;98801.66;5029629;28;19947;-54
2023/02/02 09:59:26;;;;;;;;;;;;;;;4.62;100.00;98800.16;5029118;28;20128;-55
2023/02/02 10:01:55;;;;;;;;;;;;;;;4.75;100.00;98792.66;5027415;28;20432;-55
2023/02/02 10:04:38;;;;;;;;;;;;;;;5.00;100.00;98791.09;5026959;28;20012;-54
2023/02/02 10:07:10;;;;;;;;;;;;;;;5.25;100.00;98787.00;5025744;28;20474;-54
2023/02/02 10:09:39;;;;;;;;;;;;;;;5.34;100.00;98790.44;5030000;28;19966;-52
2023/02/02 10:12:20;;;;;;;;;;;;;;;5.32;100.00;98792.09;5029204;28;19932;-54
2023/02/02 10:14:56;;;;;;;;;;;;;;;5.16;100.00;98808.13;5027061;28;20141;-55
2023/02/02 10:17:37;;;;;;;;;;;;;;;5.01;100.00;98792.78;5061268;28;20277;-55
2023/02/02 10:20:19;;;;;;;;;;;;;;;5.06;100.00;98791.97;5031972;28;20237;-53
2023/02/02 10:22:46;;;;;;;;;;;;;;;5.09;100.00;98793.69;5029699;28;19928;-54
2023/02/02 10:25:13;;;;;;;;;;;;;;;4.91;100.00;98785.97;5029855;28;19922;-55
2023/02/02 10:27:39;;;;;;;;;;;;;;;4.78;100.00;98779.09;5028005;28;19920;-57
2023/02/02 10:30:27;;;;;;;;;;;;;;;4.64;100.00;98765.47;5029175;28;20347;-57
2023/02/02 10:33:05;;;;;;;;;;;;;;;4.62;100.00;98790.00;5028112;28;19920;-54
2023/02/02 10:35:43;;;;;;;;;;;;;;;4.69;100.00;98774.81;5030840;28;19921;-56
2023/02/02 10:38:31;;;;;;;;;;;;;;;4.68;100.00;98787.50;5030767;28;19975;-55
2023/02/02 10:41:03;;;;;;;;;;;;;;;4.75;100.00;98777.41;5033429;28;20403;-61
2023/02/02 10:43:47;;;;;;;;;;;;;;;4.60;100.00;98770.53;5031883;28;19920;-58
2023/02/02 10:46:48;;;;;;;;;;;;;;;4.65;100.00;98768.03;5032102;28;19921;-57
2023/02/02 10:49:17;;;;;;;;;;;;;;;4.66;100.00;98771.41;5019412;28;20001;-58
2023/02/02 10:51:53;;;;;;;;;;;;;;;4.74;100.00;98772.31;5019320;28;20188;-62
2023/02/02 10:54:33;;;;;;;;;;;;;;;4.71;100.00;98773.13;5021930;28;19921;-57
2023/02/02 10:57:01;;;;;;;;;;;;;;;4.80;100.00;98772.34;5022770;28;19920;-58
2023/02/02 10:59:32;;;;;;;;;;;;;;;4.82;100.00;98771.53;5018745;28;20004;-56
2023/02/02 11:01:58;;;;;;;;;;;;;;;4.78;100.00;98774.03;5018531;28;19921;-57
2023/02/02 11:07:09;;;;;;;;;;;;;;;4.94;100.00;98780.91;5020712;28;19968;-57
2023/02/02 11:09:39;;;;;;;;;;;;;;;4.99;100.00;98781.78;5019423;28;20552;-57
2023/02/02 11:12:23;;;;;;;;;;;;;;;4.81;100.00;98776.56;5019066;28;20129;-57
2023/02/02 11:14:52;;;;;;;;;;;;;;;4.73;100.00;98778.22;5020018;28;19928;-56
2023/02/02 11:17:22;;;;;;;;;;;;;;;4.69;100.00;98772.28;5019448;28;19928;-58
2023/02/02 11:19:48;;;;;;;;;;;;;;;4.79;100.00;98763.03;5017795;28;19950;-59
2023/02/02 11:22:24;;;;;;;;;;;;;;;4.71;100.00;98764.69;5020016;28;19925;-59
2023/02/02 11:24:50;;;;;;;;;;;;;;;4.70;100.00;98770.59;5027211;28;20003;-59
2023/02/02 11:27:18;;;;;;;;;;;;;;;4.65;100.00;98768.03;5024483;28;19920;-57
2023/02/02 11:29:45;;;;;;;;;;;;;;;4.66;100.00;98797.66;5037143;28;19925;-60
2023/02/02 11:32:29;;;;;;;;;;;;;;;4.62;100.00;98780.72;5035309;28;19936;-58
2023/02/02 11:35:14;;;;;;;;;;;;;;;4.64;100.00;98775.63;5030269;28;20007;-56
2023/02/02 11:38:06;;;;;;;;;;;;;;;4.60;100.00;98775.59;5043657;28;19921;-58
2023/02/02 11:40:39;;;;;;;;;;;;;;;4.65;100.00;98792.56;5033759;28;19924;-59
2023/02/02 11:43:19;;;;;;;;;;;;;;;4.64;100.00;98780.69;5044671;28;20477;-58
2023/02/02 11:45:48;;;;;;;;;;;;;;;4.56;100.00;98790.81;5026871;28;20066;-57
2023/02/02 11:48:17;;;;;;;;;;;;;;;4.54;100.00;98773.00;5027994;28;20367;-59
2023/02/02 11:50:47;;;;;;;;;;;;;;;4.64;100.00;98770.53;5030518;28;19964;-60
2023/02/02 11:53:22;;;;;;;;;;;;;;;4.60;100.00;98759.53;5027462;28;19967;-57
2023/02/02 11:55:47;;;;;;;;;;;;;;;4.60;100.00;98759.53;5027932;28;19920;-60
2023/02/02 11:58:26;;;;;;;;;;;;;;;4.62;100.00;98769.69;5028191;28;19931;-59
2023/02/02 12:00:55;;;;;;;;;;;;;;;4.69;100.00;98764.66;5027282;28;19924;-59
2023/02/02 12:03:22;;;;;;;;;;;;;;;4.61;100.00;98763.75;5058698;28;19924;-60
2023/02/02 12:05:48;;;;;;;;;;;;;;;4.57;100.00;98765.44;5031604;28;20423;-56
2023/02/02 12:08:14;;;;;;;;;;;;;;;4.55;100.00;98787.41;5028481;28;19925;-56
2023/02/02 12:10:47;;;;;;;;;;;;;;;4.50;100.00;98763.69;5026716;28;19925;-56
2023/02/02 12:13:13;;;;;;;;;;;;;;;4.54;100.00;98779.81;5026991;28;20470;-57
2023/02/02 12:15:47;;;;;;;;;;;;;;;4.55;100.00;98766.25;5028115;28;20004;-60
2023/02/02 12:18:21;;;;;;;;;;;;;;;4.44;100.00;98756.03;5029109;28;19943;-58
2023/02/02 12:21:03;;;;;;;;;;;;;;;4.49;100.00;98766.22;5028136;28;20037;-56
2023/02/02 12:23:38;;;;;;;;;;;;;;;4.44;100.00;98768.72;5026125;28;19925;-58
2023/02/02 12:26:22;;;;;;;;;;;;;;;4.44;100.00;98766.19;5026257;28;19998;-57
2023/02/02 12:29:00;;;;;;;;;;;;;;;4.35;100.00;98771.19;5027668;28;19982;-58
2023/02/02 12:31:44;;;;;;;;;;;;;;;4.34;100.00;98779.63;5043292;28;19931;-58
2023/02/02 12:34:10;;;;;;;;;;;;;;;4.33;100.00;98787.25;5026010;28;19921;-58
2023/02/02 12:36:35;;;;;;;;;;;;;;;4.29;100.00;98788.03;5028351;28;19928;-58
2023/02/02 12:39:09;;;;;;;;;;;;;;;4.21;100.00;98787.13;5028781;28;19924;-55
2023/02/02 12:41:38;;;;;;;;;;;;;;;4.19;100.00;98792.22;5025291;28;20400;-55
2023/02/02 12:44:16;;;;;;;;;;;;;;;4.22;100.00;98778.69;5026558;28;20024;-56
2023/02/02 12:46:42;;;;;;;;;;;;;;;4.19;100.00;98776.97;5029880;28;20021;-56
2023/02/02 12:49:17;;;;;;;;;;;;;;;4.21;100.00;98770.22;5029735;28;19996;-54
2023/02/02 12:51:43;;;;;;;;;;;;;;;4.22;100.00;98769.38;5025043;28;19921;-54
2023/02/02 12:54:21;;;;;;;;;;;;;;;4.23;100.00;98771.09;5030546;28;20032;-56
2023/02/02 12:56:47;;;;;;;;;;;;;;;4.16;100.00;98776.13;5027741;28;20019;-57
2023/02/02 12:59:18;;;;;;;;;;;;;;;4.25;100.00;98761.78;5028566;28;20404;-55
2023/02/02 13:01:51;;;;;;;;;;;;;;;4.14;100.00;98774.41;5029798;28;20517;-54
2023/02/02 13:04:35;;;;;;;;;;;;;;;4.24;100.00;98784.63;5028513;28;20019;-60
2023/02/02 13:07:01;;;;;;;;;;;;;;;4.20;100.00;98778.66;5028579;28;20011;-55
2023/02/02 13:09:30;;;;;;;;;;;;;;;4.14;100.00;98776.09;5027315;28;20298;-57
2023/02/02 13:11:59;;;;;;;;;;;;;;;4.11;100.00;98778.59;5028182;28;19920;-55
2023/02/02 13:14:29;;;;;;;;;;;;;;;4.16;100.00;98776.94;5029541;28;19957;-54
2023/02/02 13:17:04;;;;;;;;;;;;;;;4.09;100.00;98778.59;5028225;28;19971;-56
2023/02/02 13:19:36;;;;;;;;;;;;;;;4.02;100.00;98783.59;5024718;28;20610;-55
2023/02/02 13:22:03;;;;;;;;;;;;;;;4.10;100.00;98785.38;5026334;28;19921;-53
2023/02/02 13:24:30;;;;;;;;;;;;;;;4.09;100.00;98776.03;5040904;28;20439;-55
2023/02/02 13:27:01;;;;;;;;;;;;;;;4.12;100.00;98770.13;5031040;28;19921;-55
2023/02/02 13:29:33;;;;;;;;;;;;;;;4.19;100.00;98778.66;5028030;28;20390;-54
2023/02/02 13:32:03;;;;;;;;;;;;;;;4.21;100.00;98780.38;5030016;28;19920;-56
2023/02/02 13:34:28;;;;;;;;;;;;;;;4.29;100.00;98778.75;5028630;28;20522;-55
2023/02/02 13:37:06;;;;;;;;;;;;;;;4.28;100.00;98777.06;5034527;28;19925;-57
2023/02/02 13:39:33;;;;;;;;;;;;;;;4.22;100.00;98781.22;5017093;28;19925;-55
2023/02/02 13:42:01;;;;;;;;;;;;;;;4.25;100.00;98779.56;5027888;28;19995;-55
2023/02/02 13:44:39;;;;;;;;;;;;;;;4.19;100.00;98786.28;5030034;28;19920;-58
2023/02/02 13:47:08;;;;;;;;;;;;;;;4.16;100.00;98776.94;5028810;28;19920;-55
2023/02/02 13:49:37;;;;;;;;;;;;;;;4.17;100.00;98776.09;5031936;28;20615;-55
2023/02/02 13:52:02;;;;;;;;;;;;;;;4.09;100.00;98791.25;5030719;28;19920;-61
2023/02/02 13:54:54;;;;;;;;;;;;;;;4.12;100.00;98790.44;5034314;28;19921;-58
2023/02/02 13:57:35;;;;;;;;;;;;;;;4.06;100.00;98806.47;5031236;28;19966;-56
2023/02/02 14:00:12;;;;;;;;;;;;;;;3.97;100.00;98800.44;5029534;28;19921;-61
2023/02/02 14:02:40;;;;;;;;;;;;;;;3.95;100.00;98822.38;5031609;28;19967;-55
2023/02/02 14:05:07;;;;;;;;;;;;;;;3.88;100.00;98803.75;5029246;28;19921;-56
2023/02/02 14:07:36;;;;;;;;;;;;;;;3.83;100.00;98817.19;5027318;28;20342;-55
2023/02/02 14:10:03;;;;;;;;;;;;;;;3.79;100.00;98816.31;5031687;28;19925;-53
2023/02/02 14:12:33;;;;;;;;;;;;;;;3.87;100.00;98808.78;5028251;28;20534;-53
2023/02/02 14:14:58;;;;;;;;;;;;;;;3.78;100.00;98821.41;5027791;28;19920;-56
2023/02/02 14:17:24;;;;;;;;;;;;;;;3.81;100.00;98816.34;5027966;28;19952;-54
2023/02/02 14:20:00;;;;;;;;;;;;;;;3.79;100.00;98816.31;5046273;28;19921;-56
2023/02/02 14:22:25;;;;;;;;;;;;;;;3.72;100.00;98844.97;5030963;28;20026;-53
2023/02/02 14:24:52;;;;;;;;;;;;;;;3.79;100.00;98828.13;5031128;28;20585;-52
2023/02/02 14:27:18;;;;;;;;;;;;;;;3.81;100.00;98829.03;5029508;28;19925;-56
2023/02/02 14:29:46;;;;;;;;;;;;;;;3.81;100.00;98823.94;5029950;28;19936;-53
2023/02/02 14:32:26;;;;;;;;;;;;;;;3.76;100.00;98821.38;5029864;28;19921;-50
2023/02/02 14:35:07;;;;;;;;;;;;;;;3.79;100.00;98830.69;5031599;28;19921;-55
2023/02/02 14:37:33;;;;;;;;;;;;;;;3.75;100.00;98828.94;5026372;28;20007;-54
2023/02/02 14:40:07;;;;;;;;;;;;;;;3.71;100.00;98820.47;5028404;28;20016;-52
2023/02/02 14:45:28;;;;;;;;;;;;;;;3.75;100.00;98832.34;5031489;28;19929;-55
2023/02/02 14:47:54;;;;;;;;;;;;;;;3.77;100.00;98838.28;5030563;28;19920;-55
2023/02/02 14:50:25;;;;;;;;;;;;;;;3.69;100.00;98847.50;5030025;28;19921;-55
2023/02/02 14:53:00;;;;;;;;;;;;;;;3.64;100.00;98855.03;5031769;28;19916;-54
2023/02/02 14:55:26;;;;;;;;;;;;;;;3.60;100.00;98853.31;5028700;28;19921;-55
2023/02/02 14:57:59;;;;;;;;;;;;;;;3.60;100.00;98855.84;5030460;28;19950;-54
2023/02/02 15:00:29;;;;;;;;;;;;;;;3.58;100.00;98866.78;5029365;28;19932;-56
2023/02/02 15:02:54;;;;;;;;;;;;;;;3.59;100.00;98864.28;5028626;28;19929;-54
2023/02/02 15:05:37;;;;;;;;;;;;;;;3.53;100.00;98874.31;5029445;28;20390;-53
2023/02/02 15:08:21;;;;;;;;;;;;;;;3.48;100.00;98870.03;5029752;28;20384;-51
2023/02/02 15:10:49;;;;;;;;;;;;;;;3.47;100.00;98871.72;5030931;28;20042;-55
2023/02/02 15:13:16;;;;;;;;;;;;;;;3.45;100.00;98886.03;5029043;28;19925;-54
2023/02/02 15:15:42;;;;;;;;;;;;;;;3.45;100.00;98878.44;5027140;28;19927;-55
2023/02/02 15:18:14;;;;;;;;;;;;;;;3.44;100.00;98881.78;5027211;28;19927;-56
2023/02/02 15:20:50;;;;;;;;;;;;;;;3.44;100.00;98889.41;5029965;28;19928;-60
2023/02/02 15:23:21;;;;;;;;;;;;;;;3.38;100.00;98880.88;5035224;28;19932;-56
2023/02/02 15:26:09;;;;;;;;;;;;;;;3.40;100.00;98892.72;5027924;28;19920;-55
2023/02/02 15:28:41;;;;;;;;;;;;;;;3.46;100.00;98894.50;5025477;28;19928;-57
2023/02/02 15:31:19;;;;;;;;;;;;;;;3.47;100.00;98889.47;5062025;28;20046;-60
2023/02/02 15:33:47;;;;;;;;;;;;;;;3.46;100.00;98907.16;5029067;28;19924;-56
2023/02/02 15:36:32;;;;;;;;;;;;;;;3.41;100.00;98916.38;5028441;28;19928;-58
2023/02/02 15:39:01;;;;;;;;;;;;;;;3.49;100.00;98920.72;5024457;28;19974;-56
2023/02/02 15:41:27;;;;;;;;;;;;;;;3.40;100.00;98922.28;5030357;28;20051;-58
2023/02/02 15:43:53;;;;;;;;;;;;;;;3.36;100.00;98923.06;5031988;28;19936;-56
2023/02/02 15:46:25;;;;;;;;;;;;;;;3.32;100.00;98936.53;5030371;28;20019;-56
2023/02/02 15:49:09;;;;;;;;;;;;;;;3.36;100.00;98925.59;5029844;28;19960;-56
2023/02/02 15:51:35;;;;;;;;;;;;;;;3.34;100.00;98933.19;5030276;28;19917;-56
2023/02/02 15:54:01;;;;;;;;;;;;;;;3.30;100.00;98940.72;5030575;28;20649;-57
2023/02/02 15:56:30;;;;;;;;;;;;;;;3.34;100.00;98943.34;5030597;28;19925;-55
2023/02/02 15:58:58;;;;;;;;;;;;;;;3.33;100.00;98941.63;5030699;28;19986;-58
2023/02/02 16:01:25;;;;;;;;;;;;;;;3.30;100.00;98949.19;5028335;28;19975;-55
2023/02/02 16:04:09;;;;;;;;;;;;;;;3.27;100.00;98951.66;5029606;28;19925;-56
2023/02/02 16:06:35;;;;;;;;;;;;;;;3.22;100.00;98965.97;5035738;28;19921;-55
2023/02/02 16:09:04;;;;;;;;;;;;;;;3.22;100.00;98961.72;5030669;28;20347;-54
2023/02/02 16:11:29;;;;;;;;;;;;;;;3.22;100.00;98974.38;5060750;28;19963;-56
2023/02/02 16:14:00;;;;;;;;;;;;;;;3.25;100.00;98973.59;5030771;28;20538;-57
2023/02/02 16:16:30;;;;;;;;;;;;;;;3.20;100.00;98975.19;5031240;28;19978;-56
2023/02/02 16:19:03;;;;;;;;;;;;;;;3.25;100.00;98986.25;5029891;28;20406;-56
2023/02/02 16:21:29;;;;;;;;;;;;;;;3.20;100.00;98988.72;5027609;28;20419;-56
2023/02/02 16:23:56;;;;;;;;;;;;;;;3.19;100.00;98979.41;5029908;28;20007;-57
2023/02/02 16:26:24;;;;;;;;;;;;;;;3.20;100.00;98991.25;5030995;28;20566;-56
2023/02/02 16:28:50;;;;;;;;;;;;;;;3.22;100.00;98991.28;5032416;28;19966;-53
2023/02/02 16:31:15;;;;;;;;;;;;;;;3.16;100.00;98999.63;5031567;28;19976;-56
2023/02/02 16:33:42;;;;;;;;;;;;;;;3.14;100.00;99005.53;5028168;28;19932;-58
2023/02/02 16:36:22;;;;;;;;;;;;;;;3.15;100.00;99018.19;5029041;28;20350;-58
2023/02/02 16:38:49;;;;;;;;;;;;;;;3.17;100.00;99020.75;5029855;28;19924;-55
2023/02/02 16:41:25;;;;;;;;;;;;;;;3.16;100.00;99034.25;5030239;28;20010;-58